sensor_id;sensor_type;location;lat;lon;timestamp;temperature;humidity
19868;DHT22;10096;51.112;6.776;2023-01-13T00:01:28;11.80;1.00
19868;DHT22;10096;51.112;6.776;2023-01-13T00:03:55;11.90;1.00
19868;DHT22;10096;51.112;6.776;2023-01-13T00:06:23;11.90;1.00
19868;DHT22;10096;51.112;6.776;2023-01-13T00:08:51;11.70;1.00
19868;DHT22;10096;51.112;6.776;2023-01-13T00:11:19;11.70;1.00
19868;DHT22;10096;51.112;6.776;2023-01-13T00:13:46;11.70;99.90
19868;DHT22;10096;51.112;6.776;2023-01-13T00:16:15;11.70;99.90
19868;DHT22;10096;51.112;6.776;2023-01-13T00:18:44;11.60;99.90
19868;DHT22;10096;51.112;6.776;2023-01-13T00:21:13;11.50;99.90
19868;DHT22;10096;51.112;6.776;2023-01-13T00:23:41;11.40;99.90
19868;DHT22;10096;51.112;6.776;2023-01-13T00:26:10;11.60;99.90
19868;DHT22;10096;51.112;6.776;2023-01-13T00:28:37;11.60;99.90
19868;DHT22;10096;51.112;6.776;2023-01-13T00:31:05;11.50;99.90
19868;DHT22;10096;51.112;6.776;2023-01-13T00:33:32;11.50;99.90
19868;DHT22;10096;51.112;6.776;2023-01-13T00:36:02;11.60;99.90
19868;DHT22;10096;51.112;6.776;2023-01-13T00:38:30;11.50;99.90
19868;DHT22;10096;51.112;6.776;2023-01-13T00:40:59;11.60;99.90
19868;DHT22;10096;51.112;6.776;2023-01-13T00:43:28;11.60;98.20
19868;DHT22;10096;51.112;6.776;2023-01-13T00:45:54;11.50;67.90
19868;DHT22;10096;51.112;6.776;2023-01-13T00:48:23;11.50;80.10
19868;DHT22;10096;51.112;6.776;2023-01-13T00:50:54;11.60;51.90
19868;DHT22;10096;51.112;6.776;2023-01-13T00:53:23;11.50;34.40
19868;DHT22;10096;51.112;6.776;2023-01-13T00:55:58;11.50;49.50
19868;DHT22;10096;51.112;6.776;2023-01-13T00:58:26;11.70;35.10
19868;DHT22;10096;51.112;6.776;2023-01-13T01:00:52;11.50;44.20
19868;DHT22;10096;51.112;6.776;2023-01-13T01:03:19;11.70;38.40
19868;DHT22;10096;51.112;6.776;2023-01-13T01:05:46;11.60;44.80
19868;DHT22;10096;51.112;6.776;2023-01-13T01:08:13;11.60;48.30
19868;DHT22;10096;51.112;6.776;2023-01-13T01:10:41;11.40;41.70
19868;DHT22;10096;51.112;6.776;2023-01-13T01:13:08;11.50;36.50
19868;DHT22;10096;51.112;6.776;2023-01-13T01:15:39;11.60;30.00
19868;DHT22;10096;51.112;6.776;2023-01-13T01:18:06;11.40;18.10
19868;DHT22;10096;51.112;6.776;2023-01-13T01:20:33;11.40;15.90
19868;DHT22;10096;51.112;6.776;2023-01-13T01:22:59;11.40;21.00
19868;DHT22;10096;51.112;6.776;2023-01-13T01:25:26;11.40;24.70
19868;DHT22;10096;51.112;6.776;2023-01-13T01:27:55;11.40;41.10
19868;DHT22;10096;51.112;6.776;2023-01-13T01:30:21;11.50;2.90
19868;DHT22;10096;51.112;6.776;2023-01-13T01:32:48;11.40;1.00
19868;DHT22;10096;51.112;6.776;2023-01-13T01:35:15;11.40;1.00
19868;DHT22;10096;51.112;6.776;2023-01-13T01:37:42;11.40;1.00
19868;DHT22;10096;51.112;6.776;2023-01-13T01:40:10;11.30;5.60
19868;DHT22;10096;51.112;6.776;2023-01-13T01:42:37;11.30;1.00
19868;DHT22;10096;51.112;6.776;2023-01-13T01:45:36;11.20;1.00
19868;DHT22;10096;51.112;6.776;2023-01-13T01:48:03;11.20;1.00
19868;DHT22;10096;51.112;6.776;2023-01-13T01:50:32;11.10;1.00
19868;DHT22;10096;51.112;6.776;2023-01-13T01:53:06;11.00;1.00
19868;DHT22;10096;51.112;6.776;2023-01-13T01:55:35;10.90;1.00
19868;DHT22;10096;51.112;6.776;2023-01-13T01:58:07;10.90;1.00
19868;DHT22;10096;51.112;6.776;2023-01-13T02:00:38;10.80;1.00
19868;DHT22;10096;51.112;6.776;2023-01-13T02:03:06;10.80;1.00
19868;DHT22;10096;51.112;6.776;2023-01-13T02:05:34;10.80;1.00
19868;DHT22;10096;51.112;6.776;2023-01-13T02:08:04;10.80;1.00
19868;DHT22;10096;51.112;6.776;2023-01-13T02:10:31;10.60;1.00
19868;DHT22;10096;51.112;6.776;2023-01-13T02:13:00;10.70;1.00
19868;DHT22;10096;51.112;6.776;2023-01-13T02:15:32;10.60;1.00
19868;DHT22;10096;51.112;6.776;2023-01-13T02:18:26;10.60;1.00
19868;DHT22;10096;51.112;6.776;2023-01-13T02:21:07;10.70;1.00
19868;DHT22;10096;51.112;6.776;2023-01-13T02:24:13;10.50;1.00
19868;DHT22;10096;51.112;6.776;2023-01-13T02:27:33;10.60;1.00
19868;DHT22;10096;51.112;6.776;2023-01-13T02:30:22;10.20;1.00
19868;DHT22;10096;51.112;6.776;2023-01-13T02:33:22;10.10;1.00
19868;DHT22;10096;51.112;6.776;2023-01-13T02:35:58;10.30;1.00
19868;DHT22;10096;51.112;6.776;2023-01-13T02:38:30;10.20;1.00
19868;DHT22;10096;51.112;6.776;2023-01-13T02:41:02;10.30;1.00
19868;DHT22;10096;51.112;6.776;2023-01-13T02:43:51;10.20;1.00
19868;DHT22;10096;51.112;6.776;2023-01-13T02:46:42;10.10;1.00
19868;DHT22;10096;51.112;6.776;2023-01-13T02:49:14;10.00;1.00
19868;DHT22;10096;51.112;6.776;2023-01-13T02:51:44;9.80;1.00
19868;DHT22;10096;51.112;6.776;2023-01-13T02:54:16;9.60;1.00
19868;DHT22;10096;51.112;6.776;2023-01-13T02:56:46;9.60;1.00
19868;DHT22;10096;51.112;6.776;2023-01-13T02:59:14;9.50;1.00
19868;DHT22;10096;51.112;6.776;2023-01-13T03:01:42;9.60;1.00
19868;DHT22;10096;51.112;6.776;2023-01-13T03:04:13;9.60;1.00
19868;DHT22;10096;51.112;6.776;2023-01-13T03:06:47;9.50;1.00
19868;DHT22;10096;51.112;6.776;2023-01-13T03:09:20;9.50;1.00
19868;DHT22;10096;51.112;6.776;2023-01-13T03:11:54;9.70;1.00
19868;DHT22;10096;51.112;6.776;2023-01-13T03:14:31;9.60;1.00
19868;DHT22;10096;51.112;6.776;2023-01-13T03:17:11;9.50;1.00
19868;DHT22;10096;51.112;6.776;2023-01-13T03:19:43;9.50;1.00
19868;DHT22;10096;51.112;6.776;2023-01-13T03:22:19;9.50;1.00
19868;DHT22;10096;51.112;6.776;2023-01-13T03:24:50;9.50;1.00
19868;DHT22;10096;51.112;6.776;2023-01-13T03:27:22;9.50;1.00
19868;DHT22;10096;51.112;6.776;2023-01-13T03:29:54;9.60;1.00
19868;DHT22;10096;51.112;6.776;2023-01-13T03:32:26;9.60;1.00
19868;DHT22;10096;51.112;6.776;2023-01-13T03:34:57;9.30;1.00
19868;DHT22;10096;51.112;6.776;2023-01-13T03:37:29;9.40;1.00
19868;DHT22;10096;51.112;6.776;2023-01-13T03:40:01;9.20;1.00
19868;DHT22;10096;51.112;6.776;2023-01-13T03:42:31;9.00;1.00
19868;DHT22;10096;51.112;6.776;2023-01-13T03:45:04;9.00;1.00
19868;DHT22;10096;51.112;6.776;2023-01-13T03:47:38;8.90;1.00
19868;DHT22;10096;51.112;6.776;2023-01-13T03:50:10;9.00;1.00
19868;DHT22;10096;51.112;6.776;2023-01-13T03:52:43;8.90;1.00
19868;DHT22;10096;51.112;6.776;2023-01-13T03:55:21;8.90;1.00
19868;DHT22;10096;51.112;6.776;2023-01-13T03:57:52;9.00;1.00
19868;DHT22;10096;51.112;6.776;2023-01-13T04:00:23;8.80;1.00
19868;DHT22;10096;51.112;6.776;2023-01-13T04:02:57;8.90;1.00
19868;DHT22;10096;51.112;6.776;2023-01-13T04:05:27;8.80;1.00
19868;DHT22;10096;51.112;6.776;2023-01-13T04:07:59;8.60;1.00
19868;DHT22;10096;51.112;6.776;2023-01-13T04:10:30;8.60;1.00
19868;DHT22;10096;51.112;6.776;2023-01-13T04:13:01;8.70;1.00
19868;DHT22;10096;51.112;6.776;2023-01-13T04:15:32;8.60;1.00
19868;DHT22;10096;51.112;6.776;2023-01-13T04:18:08;8.80;1.00
19868;DHT22;10096;51.112;6.776;2023-01-13T04:20:36;8.60;1.00
19868;DHT22;10096;51.112;6.776;2023-01-13T04:23:04;8.50;1.00
19868;DHT22;10096;51.112;6.776;2023-01-13T04:25:31;8.70;1.00
19868;DHT22;10096;51.112;6.776;2023-01-13T04:27:59;8.50;1.00
19868;DHT22;10096;51.112;6.776;2023-01-13T04:30:26;8.50;1.00
19868;DHT22;10096;51.112;6.776;2023-01-13T04:32:53;8.50;1.00
19868;DHT22;10096;51.112;6.776;2023-01-13T04:35:21;8.60;1.00
19868;DHT22;10096;51.112;6.776;2023-01-13T04:37:48;8.60;1.00
19868;DHT22;10096;51.112;6.776;2023-01-13T04:40:15;8.60;1.00
19868;DHT22;10096;51.112;6.776;2023-01-13T04:42:43;8.60;1.00
19868;DHT22;10096;51.112;6.776;2023-01-13T04:45:11;8.70;1.00
19868;DHT22;10096;51.112;6.776;2023-01-13T04:47:38;8.90;1.00
19868;DHT22;10096;51.112;6.776;2023-01-13T04:50:06;8.60;1.00
19868;DHT22;10096;51.112;6.776;2023-01-13T04:52:35;8.80;1.00
19868;DHT22;10096;51.112;6.776;2023-01-13T04:55:03;8.80;1.00
19868;DHT22;10096;51.112;6.776;2023-01-13T04:57:31;8.90;1.00
19868;DHT22;10096;51.112;6.776;2023-01-13T04:59:59;9.00;1.00
19868;DHT22;10096;51.112;6.776;2023-01-13T05:02:26;9.20;1.00
19868;DHT22;10096;51.112;6.776;2023-01-13T05:04:53;9.20;1.00
19868;DHT22;10096;51.112;6.776;2023-01-13T05:07:20;9.40;1.00
19868;DHT22;10096;51.112;6.776;2023-01-13T05:09:48;9.20;1.00
19868;DHT22;10096;51.112;6.776;2023-01-13T05:12:15;9.30;1.00
19868;DHT22;10096;51.112;6.776;2023-01-13T05:15:00;9.20;1.00
19868;DHT22;10096;51.112;6.776;2023-01-13T05:17:44;9.30;1.00
19868;DHT22;10096;51.112;6.776;2023-01-13T05:20:12;9.50;1.00
19868;DHT22;10096;51.112;6.776;2023-01-13T05:22:39;9.40;1.00
19868;DHT22;10096;51.112;6.776;2023-01-13T05:25:25;9.60;1.00
19868;DHT22;10096;51.112;6.776;2023-01-13T05:27:53;9.40;1.00
19868;DHT22;10096;51.112;6.776;2023-01-13T05:30:23;9.40;1.00
19868;DHT22;10096;51.112;6.776;2023-01-13T05:33:08;9.40;1.00
19868;DHT22;10096;51.112;6.776;2023-01-13T05:35:37;9.60;1.00
19868;DHT22;10096;51.112;6.776;2023-01-13T05:38:04;9.30;1.00
19868;DHT22;10096;51.112;6.776;2023-01-13T05:40:32;9.20;1.00
19868;DHT22;10096;51.112;6.776;2023-01-13T05:43:18;9.20;1.00
19868;DHT22;10096;51.112;6.776;2023-01-13T05:45:51;9.20;1.00
19868;DHT22;10096;51.112;6.776;2023-01-13T05:48:20;9.30;1.00
19868;DHT22;10096;51.112;6.776;2023-01-13T05:50:47;9.40;1.00
19868;DHT22;10096;51.112;6.776;2023-01-13T05:53:15;9.40;1.00
19868;DHT22;10096;51.112;6.776;2023-01-13T05:55:44;9.20;1.00
19868;DHT22;10096;51.112;6.776;2023-01-13T05:58:13;9.10;1.00
19868;DHT22;10096;51.112;6.776;2023-01-13T06:00:40;9.20;1.00
19868;DHT22;10096;51.112;6.776;2023-01-13T06:03:08;9.20;1.00
19868;DHT22;10096;51.112;6.776;2023-01-13T06:05:35;9.10;1.00
19868;DHT22;10096;51.112;6.776;2023-01-13T06:08:04;9.10;1.00
19868;DHT22;10096;51.112;6.776;2023-01-13T06:10:33;9.10;1.00
19868;DHT22;10096;51.112;6.776;2023-01-13T06:13:02;9.00;1.00
19868;DHT22;10096;51.112;6.776;2023-01-13T06:15:29;9.00;1.00
19868;DHT22;10096;51.112;6.776;2023-01-13T06:17:56;9.00;1.00
19868;DHT22;10096;51.112;6.776;2023-01-13T06:20:24;9.10;1.00
19868;DHT22;10096;51.112;6.776;2023-01-13T06:22:52;9.00;1.00
19868;DHT22;10096;51.112;6.776;2023-01-13T06:25:29;9.30;1.00
19868;DHT22;10096;51.112;6.776;2023-01-13T06:27:58;9.30;1.00
19868;DHT22;10096;51.112;6.776;2023-01-13T06:30:30;9.10;1.00
19868;DHT22;10096;51.112;6.776;2023-01-13T06:33:01;9.40;1.00
19868;DHT22;10096;51.112;6.776;2023-01-13T06:35:32;9.20;1.00
19868;DHT22;10096;51.112;6.776;2023-01-13T06:38:02;9.20;1.00
19868;DHT22;10096;51.112;6.776;2023-01-13T06:40:33;9.00;1.00
19868;DHT22;10096;51.112;6.776;2023-01-13T06:43:03;9.10;1.00
19868;DHT22;10096;51.112;6.776;2023-01-13T06:45:46;9.00;1.00
19868;DHT22;10096;51.112;6.776;2023-01-13T06:48:14;9.10;1.00
19868;DHT22;10096;51.112;6.776;2023-01-13T06:50:57;9.00;1.00
19868;DHT22;10096;51.112;6.776;2023-01-13T06:53:24;8.90;1.00
19868;DHT22;10096;51.112;6.776;2023-01-13T06:55:51;9.00;1.00
19868;DHT22;10096;51.112;6.776;2023-01-13T06:58:18;8.80;1.00
19868;DHT22;10096;51.112;6.776;2023-01-13T07:00:48;8.80;1.00
19868;DHT22;10096;51.112;6.776;2023-01-13T07:03:17;8.80;1.00
19868;DHT22;10096;51.112;6.776;2023-01-13T07:05:51;9.00;1.00
19868;DHT22;10096;51.112;6.776;2023-01-13T07:08:18;8.80;1.00
19868;DHT22;10096;51.112;6.776;2023-01-13T07:10:45;8.90;1.00
19868;DHT22;10096;51.112;6.776;2023-01-13T07:13:12;9.00;1.00
19868;DHT22;10096;51.112;6.776;2023-01-13T07:16:00;9.10;1.00
19868;DHT22;10096;51.112;6.776;2023-01-13T07:18:28;8.90;1.00
19868;DHT22;10096;51.112;6.776;2023-01-13T07:20:57;8.80;1.00
19868;DHT22;10096;51.112;6.776;2023-01-13T07:23:25;9.00;1.00
19868;DHT22;10096;51.112;6.776;2023-01-13T07:25:54;8.70;1.00
19868;DHT22;10096;51.112;6.776;2023-01-13T07:28:21;8.70;1.00
19868;DHT22;10096;51.112;6.776;2023-01-13T07:30:49;8.90;1.00
19868;DHT22;10096;51.112;6.776;2023-01-13T07:33:18;8.80;1.00
19868;DHT22;10096;51.112;6.776;2023-01-13T07:35:46;8.60;1.00
19868;DHT22;10096;51.112;6.776;2023-01-13T07:38:14;8.60;1.00
19868;DHT22;10096;51.112;6.776;2023-01-13T07:40:41;8.90;1.00
19868;DHT22;10096;51.112;6.776;2023-01-13T07:43:09;8.70;1.00
19868;DHT22;10096;51.112;6.776;2023-01-13T07:45:55;8.60;1.00
19868;DHT22;10096;51.112;6.776;2023-01-13T07:48:24;8.60;1.00
19868;DHT22;10096;51.112;6.776;2023-01-13T07:50:51;8.60;1.00
19868;DHT22;10096;51.112;6.776;2023-01-13T07:53:19;8.60;1.00
19868;DHT22;10096;51.112;6.776;2023-01-13T07:55:46;8.70;1.00
19868;DHT22;10096;51.112;6.776;2023-01-13T07:58:14;8.40;1.00
19868;DHT22;10096;51.112;6.776;2023-01-13T08:00:42;8.50;1.00
19868;DHT22;10096;51.112;6.776;2023-01-13T08:03:09;8.60;1.00
19868;DHT22;10096;51.112;6.776;2023-01-13T08:05:37;8.70;1.00
19868;DHT22;10096;51.112;6.776;2023-01-13T08:08:04;8.80;1.00
19868;DHT22;10096;51.112;6.776;2023-01-13T08:10:32;8.70;1.00
19868;DHT22;10096;51.112;6.776;2023-01-13T08:12:59;8.90;1.00
19868;DHT22;10096;51.112;6.776;2023-01-13T08:15:47;8.90;1.00
19868;DHT22;10096;51.112;6.776;2023-01-13T08:18:14;8.90;1.00
19868;DHT22;10096;51.112;6.776;2023-01-13T08:20:54;9.20;1.00
19868;DHT22;10096;51.112;6.776;2023-01-13T08:23:23;9.00;1.00
19868;DHT22;10096;51.112;6.776;2023-01-13T08:25:51;9.20;1.00
19868;DHT22;10096;51.112;6.776;2023-01-13T08:28:18;9.50;1.00
19868;DHT22;10096;51.112;6.776;2023-01-13T08:30:45;9.50;1.00
19868;DHT22;10096;51.112;6.776;2023-01-13T08:33:13;9.40;1.00
19868;DHT22;10096;51.112;6.776;2023-01-13T08:35:40;9.30;1.00
19868;DHT22;10096;51.112;6.776;2023-01-13T08:38:10;9.40;1.00
19868;DHT22;10096;51.112;6.776;2023-01-13T08:40:38;9.50;1.00
19868;DHT22;10096;51.112;6.776;2023-01-13T08:43:05;9.40;1.00
19868;DHT22;10096;51.112;6.776;2023-01-13T08:45:32;9.50;1.00
19868;DHT22;10096;51.112;6.776;2023-01-13T08:48:00;9.50;1.00
19868;DHT22;10096;51.112;6.776;2023-01-13T08:50:27;9.60;1.00
19868;DHT22;10096;51.112;6.776;2023-01-13T08:52:54;9.50;1.00
19868;DHT22;10096;51.112;6.776;2023-01-13T08:55:23;9.70;1.00
19868;DHT22;10096;51.112;6.776;2023-01-13T08:57:50;9.50;1.00
19868;DHT22;10096;51.112;6.776;2023-01-13T09:00:17;9.60;1.00
19868;DHT22;10096;51.112;6.776;2023-01-13T09:02:44;9.70;1.00
19868;DHT22;10096;51.112;6.776;2023-01-13T09:05:28;9.70;1.00
19868;DHT22;10096;51.112;6.776;2023-01-13T09:07:55;9.80;1.00
19868;DHT22;10096;51.112;6.776;2023-01-13T09:10:23;9.90;1.00
19868;DHT22;10096;51.112;6.776;2023-01-13T09:12:50;10.00;1.00
19868;DHT22;10096;51.112;6.776;2023-01-13T09:15:34;10.00;1.00
19868;DHT22;10096;51.112;6.776;2023-01-13T09:18:01;9.80;1.00
19868;DHT22;10096;51.112;6.776;2023-01-13T09:20:28;9.90;1.00
19868;DHT22;10096;51.112;6.776;2023-01-13T09:22:58;9.90;1.00
19868;DHT22;10096;51.112;6.776;2023-01-13T09:25:26;9.90;1.00
19868;DHT22;10096;51.112;6.776;2023-01-13T09:27:53;10.10;1.00
19868;DHT22;10096;51.112;6.776;2023-01-13T09:30:22;10.30;1.00
19868;DHT22;10096;51.112;6.776;2023-01-13T09:32:49;10.30;1.00
19868;DHT22;10096;51.112;6.776;2023-01-13T09:35:36;10.70;1.00
19868;DHT22;10096;51.112;6.776;2023-01-13T09:38:02;10.60;1.00
19868;DHT22;10096;51.112;6.776;2023-01-13T09:40:32;10.40;1.00
19868;DHT22;10096;51.112;6.776;2023-01-13T09:43:04;10.50;1.00
19868;DHT22;10096;51.112;6.776;2023-01-13T09:45:53;10.70;1.00
19868;DHT22;10096;51.112;6.776;2023-01-13T09:48:27;10.60;1.00
19868;DHT22;10096;51.112;6.776;2023-01-13T09:50:59;10.60;1.00
19868;DHT22;10096;51.112;6.776;2023-01-13T09:53:31;10.60;1.00
19868;DHT22;10096;51.112;6.776;2023-01-13T09:56:00;10.60;1.00
19868;DHT22;10096;51.112;6.776;2023-01-13T09:58:27;10.80;1.00
19868;DHT22;10096;51.112;6.776;2023-01-13T10:01:10;10.80;1.00
19868;DHT22;10096;51.112;6.776;2023-01-13T10:03:42;10.70;1.00
19868;DHT22;10096;51.112;6.776;2023-01-13T10:06:12;10.80;1.00
19868;DHT22;10096;51.112;6.776;2023-01-13T10:08:42;10.80;1.00
19868;DHT22;10096;51.112;6.776;2023-01-13T10:11:15;10.90;1.00
19868;DHT22;10096;51.112;6.776;2023-01-13T10:14:02;11.10;1.00
19868;DHT22;10096;51.112;6.776;2023-01-13T10:16:34;11.30;1.00
19868;DHT22;10096;51.112;6.776;2023-01-13T10:19:15;11.30;1.00
19868;DHT22;10096;51.112;6.776;2023-01-13T10:22:09;11.10;1.00
19868;DHT22;10096;51.112;6.776;2023-01-13T10:24:57;11.10;1.00
19868;DHT22;10096;51.112;6.776;2023-01-13T10:27:31;10.90;1.00
19868;DHT22;10096;51.112;6.776;2023-01-13T10:30:08;11.10;1.00
19868;DHT22;10096;51.112;6.776;2023-01-13T10:32:35;11.10;1.00
19868;DHT22;10096;51.112;6.776;2023-01-13T10:35:02;10.90;1.00
19868;DHT22;10096;51.112;6.776;2023-01-13T10:37:31;11.10;1.00
19868;DHT22;10096;51.112;6.776;2023-01-13T10:40:00;11.10;1.00
19868;DHT22;10096;51.112;6.776;2023-01-13T10:42:29;11.00;1.00
19868;DHT22;10096;51.112;6.776;2023-01-13T10:44:57;11.00;1.00
19868;DHT22;10096;51.112;6.776;2023-01-13T10:47:26;11.20;1.00
19868;DHT22;10096;51.112;6.776;2023-01-13T10:49:59;11.20;1.00
19868;DHT22;10096;51.112;6.776;2023-01-13T10:52:28;11.00;1.00
19868;DHT22;10096;51.112;6.776;2023-01-13T10:54:57;11.10;1.00
19868;DHT22;10096;51.112;6.776;2023-01-13T10:57:25;11.20;1.00
19868;DHT22;10096;51.112;6.776;2023-01-13T10:59:54;11.30;1.00
19868;DHT22;10096;51.112;6.776;2023-01-13T11:02:26;11.40;1.00
19868;DHT22;10096;51.112;6.776;2023-01-13T11:05:02;11.50;1.00
19868;DHT22;10096;51.112;6.776;2023-01-13T11:07:38;11.40;1.00
19868;DHT22;10096;51.112;6.776;2023-01-13T11:10:17;11.20;1.00
19868;DHT22;10096;51.112;6.776;2023-01-13T11:12:51;11.30;1.00
19868;DHT22;10096;51.112;6.776;2023-01-13T11:15:22;11.30;1.00
19868;DHT22;10096;51.112;6.776;2023-01-13T11:17:54;11.40;1.00
19868;DHT22;10096;51.112;6.776;2023-01-13T11:20:29;11.40;1.00
19868;DHT22;10096;51.112;6.776;2023-01-13T11:23:02;11.40;1.00
19868;DHT22;10096;51.112;6.776;2023-01-13T11:25:33;11.50;1.00
19868;DHT22;10096;51.112;6.776;2023-01-13T11:28:33;11.60;1.00
19868;DHT22;10096;51.112;6.776;2023-01-13T11:31:07;11.60;1.00
19868;DHT22;10096;51.112;6.776;2023-01-13T11:33:38;11.50;1.00
19868;DHT22;10096;51.112;6.776;2023-01-13T11:36:11;11.60;1.00
19868;DHT22;10096;51.112;6.776;2023-01-13T11:38:45;11.40;1.00
19868;DHT22;10096;51.112;6.776;2023-01-13T11:41:24;11.50;1.00
19868;DHT22;10096;51.112;6.776;2023-01-13T11:43:55;11.30;1.00
19868;DHT22;10096;51.112;6.776;2023-01-13T11:46:27;11.20;1.00
19868;DHT22;10096;51.112;6.776;2023-01-13T11:48:57;11.10;1.00
19868;DHT22;10096;51.112;6.776;2023-01-13T11:51:32;11.40;1.00
19868;DHT22;10096;51.112;6.776;2023-01-13T11:54:13;11.10;1.00
19868;DHT22;10096;51.112;6.776;2023-01-13T12:02:54;11.40;1.00
19868;DHT22;10096;51.112;6.776;2023-01-13T12:05:31;11.40;1.00
19868;DHT22;10096;51.112;6.776;2023-01-13T12:08:09;11.50;1.00
19868;DHT22;10096;51.112;6.776;2023-01-13T12:10:47;11.50;1.00
19868;DHT22;10096;51.112;6.776;2023-01-13T12:13:25;11.50;1.00
19868;DHT22;10096;51.112;6.776;2023-01-13T12:16:07;11.40;1.00
19868;DHT22;10096;51.112;6.776;2023-01-13T12:18:50;11.20;1.00
19868;DHT22;10096;51.112;6.776;2023-01-13T12:21:23;11.20;1.00
19868;DHT22;10096;51.112;6.776;2023-01-13T12:24:00;11.20;1.00
19868;DHT22;10096;51.112;6.776;2023-01-13T12:26:34;11.00;1.00
19868;DHT22;10096;51.112;6.776;2023-01-13T12:29:06;11.20;1.00
19868;DHT22;10096;51.112;6.776;2023-01-13T12:31:36;11.10;1.00
19868;DHT22;10096;51.112;6.776;2023-01-13T12:34:29;11.20;1.00
19868;DHT22;10096;51.112;6.776;2023-01-13T12:37:05;11.10;1.00
19868;DHT22;10096;51.112;6.776;2023-01-13T12:39:41;11.20;1.00
19868;DHT22;10096;51.112;6.776;2023-01-13T12:42:14;11.00;1.00
19868;DHT22;10096;51.112;6.776;2023-01-13T12:45:22;10.70;1.00
19868;DHT22;10096;51.112;6.776;2023-01-13T12:47:50;10.60;1.00
19868;DHT22;10096;51.112;6.776;2023-01-13T12:50:40;10.50;1.00
19868;DHT22;10096;51.112;6.776;2023-01-13T12:53:29;10.50;1.00
19868;DHT22;10096;51.112;6.776;2023-01-13T13:02:34;9.90;1.00
19868;DHT22;10096;51.112;6.776;2023-01-13T13:08:23;9.70;99.90
19868;DHT22;10096;51.112;6.776;2023-01-13T13:11:00;9.70;99.90
19868;DHT22;10096;51.112;6.776;2023-01-13T13:13:43;9.70;95.10
19868;DHT22;10096;51.112;6.776;2023-01-13T13:19:43;10.10;8.00
19868;DHT22;10096;51.112;6.776;2023-01-13T13:22:19;10.10;1.00
19868;DHT22;10096;51.112;6.776;2023-01-13T13:25:33;10.20;2.50
19868;DHT22;10096;51.112;6.776;2023-01-13T13:28:17;10.10;1.00
19868;DHT22;10096;51.112;6.776;2023-01-13T13:30:50;10.30;1.00
19868;DHT22;10096;51.112;6.776;2023-01-13T13:33:37;9.90;1.00
19868;DHT22;10096;51.112;6.776;2023-01-13T13:36:19;10.20;1.00
19868;DHT22;10096;51.112;6.776;2023-01-13T13:39:01;10.00;1.00
19868;DHT22;10096;51.112;6.776;2023-01-13T13:41:51;10.30;1.00
19868;DHT22;10096;51.112;6.776;2023-01-13T13:44:45;10.10;1.00
19868;DHT22;10096;51.112;6.776;2023-01-13T13:47:34;10.00;1.00
19868;DHT22;10096;51.112;6.776;2023-01-13T13:50:05;10.10;1.00
19868;DHT22;10096;51.112;6.776;2023-01-13T13:52:37;10.10;1.00
19868;DHT22;10096;51.112;6.776;2023-01-13T13:55:14;10.30;1.00
19868;DHT22;10096;51.112;6.776;2023-01-13T13:57:46;10.30;1.00
19868;DHT22;10096;51.112;6.776;2023-01-13T14:00:23;10.30;1.00
19868;DHT22;10096;51.112;6.776;2023-01-13T14:02:52;10.40;1.00
19868;DHT22;10096;51.112;6.776;2023-01-13T14:05:21;10.40;1.00
19868;DHT22;10096;51.112;6.776;2023-01-13T14:07:50;10.50;1.00
19868;DHT22;10096;51.112;6.776;2023-01-13T14:10:20;10.50;1.00
19868;DHT22;10096;51.112;6.776;2023-01-13T14:12:49;10.50;1.00
19868;DHT22;10096;51.112;6.776;2023-01-13T14:15:27;10.60;1.00
19868;DHT22;10096;51.112;6.776;2023-01-13T14:17:55;10.40;1.00
19868;DHT22;10096;51.112;6.776;2023-01-13T14:20:23;10.30;1.00
19868;DHT22;10096;51.112;6.776;2023-01-13T14:22:51;10.40;1.00
19868;DHT22;10096;51.112;6.776;2023-01-13T14:25:27;10.40;1.00
19868;DHT22;10096;51.112;6.776;2023-01-13T14:33:49;10.60;1.00
19868;DHT22;10096;51.112;6.776;2023-01-13T14:36:19;10.60;1.00
19868;DHT22;10096;51.112;6.776;2023-01-13T14:38:49;10.80;1.00
19868;DHT22;10096;51.112;6.776;2023-01-13T14:41:24;10.90;1.00
19868;DHT22;10096;51.112;6.776;2023-01-13T14:43:54;10.70;1.00
19868;DHT22;10096;51.112;6.776;2023-01-13T14:46:35;10.60;1.00
19868;DHT22;10096;51.112;6.776;2023-01-13T14:49:04;10.50;1.00
19868;DHT22;10096;51.112;6.776;2023-01-13T14:51:37;10.40;1.00
19868;DHT22;10096;51.112;6.776;2023-01-13T14:54:44;10.50;1.00
19868;DHT22;10096;51.112;6.776;2023-01-13T14:57:13;10.40;1.00
19868;DHT22;10096;51.112;6.776;2023-01-13T14:59:42;10.30;1.00
19868;DHT22;10096;51.112;6.776;2023-01-13T15:02:35;10.10;1.00
19868;DHT22;10096;51.112;6.776;2023-01-13T15:05:29;10.20;1.00
19868;DHT22;10096;51.112;6.776;2023-01-13T15:07:59;10.10;1.00
19868;DHT22;10096;51.112;6.776;2023-01-13T15:10:30;10.00;1.00
19868;DHT22;10096;51.112;6.776;2023-01-13T15:12:59;10.00;1.00
19868;DHT22;10096;51.112;6.776;2023-01-13T15:15:29;10.20;1.00
19868;DHT22;10096;51.112;6.776;2023-01-13T15:17:58;10.10;1.00
19868;DHT22;10096;51.112;6.776;2023-01-13T15:20:27;9.90;1.00
19868;DHT22;10096;51.112;6.776;2023-01-13T15:22:55;9.90;1.00
19868;DHT22;10096;51.112;6.776;2023-01-13T15:25:22;9.90;1.00
19868;DHT22;10096;51.112;6.776;2023-01-13T15:27:51;9.90;1.00
19868;DHT22;10096;51.112;6.776;2023-01-13T15:30:20;10.00;1.00
19868;DHT22;10096;51.112;6.776;2023-01-13T15:32:50;9.80;1.00
19868;DHT22;10096;51.112;6.776;2023-01-13T15:35:18;9.80;1.00
19868;DHT22;10096;51.112;6.776;2023-01-13T15:37:48;10.00;1.00
19868;DHT22;10096;51.112;6.776;2023-01-13T15:40:17;9.90;1.00
19868;DHT22;10096;51.112;6.776;2023-01-13T15:42:44;9.70;1.00
19868;DHT22;10096;51.112;6.776;2023-01-13T15:45:29;9.60;1.00
19868;DHT22;10096;51.112;6.776;2023-01-13T15:48:14;9.50;1.00
19868;DHT22;10096;51.112;6.776;2023-01-13T15:50:41;9.70;1.00
19868;DHT22;10096;51.112;6.776;2023-01-13T15:53:11;9.70;1.00
19868;DHT22;10096;51.112;6.776;2023-01-13T15:55:39;9.60;1.00
19868;DHT22;10096;51.112;6.776;2023-01-13T15:58:10;9.60;1.00
19868;DHT22;10096;51.112;6.776;2023-01-13T16:00:38;9.40;1.00
19868;DHT22;10096;51.112;6.776;2023-01-13T16:03:05;9.40;1.00
19868;DHT22;10096;51.112;6.776;2023-01-13T16:05:32;9.50;1.00
19868;DHT22;10096;51.112;6.776;2023-01-13T16:07:59;9.80;1.00
19868;DHT22;10096;51.112;6.776;2023-01-13T16:10:28;9.60;1.00
19868;DHT22;10096;51.112;6.776;2023-01-13T16:12:55;9.60;1.00
19868;DHT22;10096;51.112;6.776;2023-01-13T16:15:22;9.60;1.00
19868;DHT22;10096;51.112;6.776;2023-01-13T16:17:53;9.70;1.00
19868;DHT22;10096;51.112;6.776;2023-01-13T16:20:21;9.60;1.00
19868;DHT22;10096;51.112;6.776;2023-01-13T16:22:48;9.70;1.00
19868;DHT22;10096;51.112;6.776;2023-01-13T16:25:16;9.80;1.00
19868;DHT22;10096;51.112;6.776;2023-01-13T16:27:45;9.60;1.00
19868;DHT22;10096;51.112;6.776;2023-01-13T16:30:21;9.70;1.00
19868;DHT22;10096;51.112;6.776;2023-01-13T16:32:49;9.60;1.00
19868;DHT22;10096;51.112;6.776;2023-01-13T16:35:17;9.70;1.00
19868;DHT22;10096;51.112;6.776;2023-01-13T16:37:45;9.60;1.00
19868;DHT22;10096;51.112;6.776;2023-01-13T16:40:21;9.70;1.00
19868;DHT22;10096;51.112;6.776;2023-01-13T16:42:50;9.50;1.00
19868;DHT22;10096;51.112;6.776;2023-01-13T16:45:17;9.50;1.00
19868;DHT22;10096;51.112;6.776;2023-01-13T16:47:45;9.50;1.00
19868;DHT22;10096;51.112;6.776;2023-01-13T16:50:22;9.40;1.00